Time;durP1;ratioP1;P1;durP2;ratioP2;P2;SDS_P1;SDS_P2;PMS_P1;PMS_P2;Temp;Humidity;BMP_temperature;BMP_pressure;BME280_temperature;BME280_humidity;BME280_pressure;Samples;Min_cycle;Max_cycle;Signal;HPM_P1;HPM_P2
2023/04/29 00:01:57;;;;;;;;;;;17.90;87.40;;;;;;5131992;27;19908;-88
2023/04/29 00:04:24;;;;;;;;;;;17.90;87.40;;;;;;5116761;28;19992;-88
2023/04/29 00:06:50;;;;;;;;;;;17.90;87.40;;;;;;5102576;28;19908;-87
2023/04/29 00:09:15;;;;;;;;;;;17.90;87.50;;;;;;5102021;28;19934;-88
2023/04/29 00:11:41;;;;;;;;;;;17.90;87.40;;;;;;5103199;28;20008;-87
2023/04/29 00:14:07;;;;;;;;;;;17.90;87.50;;;;;;5103018;28;19980;-87
2023/04/29 00:16:33;;;;;;;;;;;17.90;87.50;;;;;;5120576;28;19915;-88
2023/04/29 00:18:58;;;;;;;;;;;17.80;87.40;;;;;;5102712;28;20010;-88
2023/04/29 00:21:26;;;;;;;;;;;17.80;87.40;;;;;;5120095;28;20432;-87
2023/04/29 00:23:52;;;;;;;;;;;17.80;87.50;;;;;;5102733;28;19908;-87
2023/04/29 00:26:18;;;;;;;;;;;17.80;87.50;;;;;;5101850;28;19907;-87
2023/04/29 00:28:44;;;;;;;;;;;17.80;87.50;;;;;;5102204;28;19915;-87
2023/04/29 00:31:09;;;;;;;;;;;17.80;87.50;;;;;;5134151;27;19918;-87
2023/04/29 00:33:35;;;;;;;;;;;17.80;87.50;;;;;;5117767;28;20436;-88
2023/04/29 00:36:02;;;;;;;;;;;17.80;87.60;;;;;;5096938;28;19916;-88
2023/04/29 00:38:28;;;;;;;;;;;17.80;87.60;;;;;;5096645;28;19938;-88
2023/04/29 00:40:54;;;;;;;;;;;17.80;87.60;;;;;;5098434;28;19942;-88
2023/04/29 00:43:20;;;;;;;;;;;17.80;87.60;;;;;;5131982;27;20285;-88
2023/04/29 00:45:46;;;;;;;;;;;17.80;87.70;;;;;;5103757;28;19918;-88
2023/04/29 00:48:14;;;;;;;;;;;17.80;87.60;;;;;;5135636;27;20201;-87
2023/04/29 00:50:39;;;;;;;;;;;17.80;87.70;;;;;;5099676;28;19939;-88
2023/04/29 00:53:05;;;;;;;;;;;17.80;87.70;;;;;;5100516;28;19957;-87
2023/04/29 00:55:32;;;;;;;;;;;17.80;87.60;;;;;;5098758;28;19968;-87
2023/04/29 00:57:58;;;;;;;;;;;17.80;87.60;;;;;;5116194;28;20082;-87
2023/04/29 01:00:25;;;;;;;;;;;17.80;87.70;;;;;;5098554;28;19907;-87
2023/04/29 01:02:51;;;;;;;;;;;17.80;87.70;;;;;;5098513;28;20059;-87
2023/04/29 01:05:17;;;;;;;;;;;17.80;87.70;;;;;;5101293;28;19918;-87
2023/04/29 01:08:02;;;;;;;;;;;17.80;87.70;;;;;;5100555;28;19999;-87
2023/04/29 01:10:28;;;;;;;;;;;17.70;87.60;;;;;;5102003;28;19908;-88
2023/04/29 01:13:00;;;;;;;;;;;17.70;87.60;;;;;;5102824;28;19911;-88
2023/04/29 01:15:37;;;;;;;;;;;17.70;87.60;;;;;;5101312;28;20169;-87
2023/04/29 01:18:03;;;;;;;;;;;17.70;87.60;;;;;;5118843;28;19955;-87
2023/04/29 01:20:29;;;;;;;;;;;17.70;87.60;;;;;;5100749;28;19965;-88
2023/04/29 01:22:55;;;;;;;;;;;17.70;87.70;;;;;;5100321;28;19908;-88
2023/04/29 01:25:21;;;;;;;;;;;17.70;87.70;;;;;;5101611;28;19919;-88
2023/04/29 01:28:01;;;;;;;;;;;17.70;87.60;;;;;;5101545;28;19938;-87
2023/04/29 01:30:32;;;;;;;;;;;17.70;87.70;;;;;;5118383;28;19915;-87
2023/04/29 01:33:11;;;;;;;;;;;17.70;87.70;;;;;;5101162;28;19908;-87
2023/04/29 01:35:36;;;;;;;;;;;17.70;87.70;;;;;;5118180;28;19908;-86
2023/04/29 01:38:03;;;;;;;;;;;17.70;87.70;;;;;;5099986;28;20027;-87
2023/04/29 01:40:32;;;;;;;;;;;17.70;87.70;;;;;;5118156;28;19973;-87
2023/04/29 01:42:57;;;;;;;;;;;17.70;87.70;;;;;;5099133;28;19907;-87
2023/04/29 01:45:23;;;;;;;;;;;17.60;87.70;;;;;;5101145;28;19912;-87
2023/04/29 01:47:52;;;;;;;;;;;17.60;87.70;;;;;;5099080;28;20172;-87
2023/04/29 01:50:18;;;;;;;;;;;17.60;87.70;;;;;;5098711;28;20323;-87
2023/04/29 01:52:44;;;;;;;;;;;17.70;87.70;;;;;;5099926;28;19908;-86
2023/04/29 01:55:10;;;;;;;;;;;17.60;87.70;;;;;;5116964;28;19908;-87
2023/04/29 01:57:35;;;;;;;;;;;17.60;87.70;;;;;;5098876;28;19908;-87
2023/04/29 02:00:01;;;;;;;;;;;17.60;88.40;;;;;;5098224;28;20247;-88
2023/04/29 02:02:27;;;;;;;;;;;17.60;87.70;;;;;;5117057;28;19947;-87
2023/04/29 02:04:52;;;;;;;;;;;17.60;87.80;;;;;;5098613;28;19908;-87
2023/04/29 02:07:18;;;;;;;;;;;17.60;87.70;;;;;;5117345;28;19908;-87
2023/04/29 02:09:44;;;;;;;;;;;17.60;87.70;;;;;;5100569;28;20344;-87
2023/04/29 02:12:10;;;;;;;;;;;17.60;87.70;;;;;;5100223;28;19907;-88
2023/04/29 02:14:35;;;;;;;;;;;17.60;87.80;;;;;;5117227;28;19943;-88
2023/04/29 02:17:01;;;;;;;;;;;17.60;87.80;;;;;;5099505;28;20185;-87
2023/04/29 02:19:27;;;;;;;;;;;17.60;87.70;;;;;;5098628;28;20011;-87
2023/04/29 02:21:53;;;;;;;;;;;17.60;87.70;;;;;;5098219;28;20023;-87
2023/04/29 02:24:18;;;;;;;;;;;17.60;87.80;;;;;;5097801;28;19907;-87
2023/04/29 02:26:44;;;;;;;;;;;17.60;87.80;;;;;;5115951;28;19919;-87
2023/04/29 02:29:09;;;;;;;;;;;17.50;87.70;;;;;;5132741;27;19919;-87
2023/04/29 02:31:35;;;;;;;;;;;17.50;87.70;;;;;;5099966;28;19908;-87
2023/04/29 02:34:01;;;;;;;;;;;17.50;87.70;;;;;;5099956;28;19915;-86
2023/04/29 02:36:27;;;;;;;;;;;17.50;87.70;;;;;;5099709;28;19908;-87
2023/04/29 02:38:54;;;;;;;;;;;17.50;87.70;;;;;;5118120;28;19912;-87
2023/04/29 02:41:20;;;;;;;;;;;17.50;87.70;;;;;;5134467;27;19911;-88
2023/04/29 02:43:47;;;;;;;;;;;17.50;87.70;;;;;;5117667;28;19918;-87
2023/04/29 02:46:14;;;;;;;;;;;17.50;87.70;;;;;;5117858;28;19935;-88
2023/04/29 02:48:40;;;;;;;;;;;17.50;87.70;;;;;;5098962;28;20273;-87
2023/04/29 02:51:06;;;;;;;;;;;17.50;87.70;;;;;;5116146;28;20276;-88
2023/04/29 02:53:32;;;;;;;;;;;17.50;87.80;;;;;;5098561;28;19908;-87
2023/04/29 02:55:57;;;;;;;;;;;17.50;87.80;;;;;;5098449;28;20003;-87
2023/04/29 02:58:23;;;;;;;;;;;17.50;87.80;;;;;;5116509;28;19946;-87
2023/04/29 03:00:49;;;;;;;;;;;17.50;87.80;;;;;;5098489;28;20281;-87
2023/04/29 03:03:16;;;;;;;;;;;17.50;87.80;;;;;;5131628;27;19918;-87
2023/04/29 03:05:42;;;;;;;;;;;17.50;87.80;;;;;;5097542;28;20362;-87
2023/04/29 03:08:09;;;;;;;;;;;17.50;87.80;;;;;;5099457;28;19908;-87
2023/04/29 03:10:35;;;;;;;;;;;17.40;87.80;;;;;;5099704;28;19935;-87
2023/04/29 03:13:01;;;;;;;;;;;17.40;87.80;;;;;;5098339;28;20324;-88
2023/04/29 03:15:26;;;;;;;;;;;17.40;87.80;;;;;;5098856;28;19922;-87
2023/04/29 03:17:52;;;;;;;;;;;17.40;88.40;;;;;;5097603;28;19911;-87
2023/04/29 03:20:18;;;;;;;;;;;17.40;87.80;;;;;;5097893;28;19990;-88
2023/04/29 03:22:44;;;;;;;;;;;17.40;87.80;;;;;;5097388;28;19994;-87
2023/04/29 03:25:10;;;;;;;;;;;17.40;87.80;;;;;;5097531;28;19973;-87
2023/04/29 03:27:36;;;;;;;;;;;17.40;87.80;;;;;;5098190;28;19904;-87
2023/04/29 03:30:02;;;;;;;;;;;17.40;87.80;;;;;;5098791;28;19908;-87
2023/04/29 03:32:28;;;;;;;;;;;17.40;87.80;;;;;;5131577;27;19919;-87
2023/04/29 03:34:54;;;;;;;;;;;17.40;87.80;;;;;;5098587;28;19919;-88
2023/04/29 03:37:19;;;;;;;;;;;17.40;87.80;;;;;;5098451;28;19912;-87
2023/04/29 03:39:45;;;;;;;;;;;17.40;87.80;;;;;;5097622;28;19912;-87
2023/04/29 03:42:11;;;;;;;;;;;17.30;87.70;;;;;;5096096;28;20364;-86
2023/04/29 03:44:36;;;;;;;;;;;17.40;87.80;;;;;;5129751;27;19915;-86
2023/04/29 03:47:02;;;;;;;;;;;17.30;87.70;;;;;;5131640;27;19908;-86
2023/04/29 03:49:30;;;;;;;;;;;17.30;87.70;;;;;;5097463;28;20709;-86
2023/04/29 03:51:56;;;;;;;;;;;17.30;87.60;;;;;;5097418;28;20295;-86
2023/04/29 03:54:22;;;;;;;;;;;17.30;87.70;;;;;;5116043;28;19908;-86
2023/04/29 03:56:47;;;;;;;;;;;17.30;87.70;;;;;;5133059;27;19908;-86
2023/04/29 03:59:13;;;;;;;;;;;17.30;87.70;;;;;;5116224;28;19926;-87
2023/04/29 04:01:40;;;;;;;;;;;17.30;87.70;;;;;;5099338;28;19908;-86
2023/04/29 04:04:06;;;;;;;;;;;17.30;87.70;;;;;;5098108;28;19916;-86
2023/04/29 04:06:32;;;;;;;;;;;17.30;87.70;;;;;;5116048;28;19912;-86
2023/04/29 04:08:57;;;;;;;;;;;17.30;87.70;;;;;;5115811;28;19907;-86
2023/04/29 04:11:23;;;;;;;;;;;17.30;87.70;;;;;;5097695;28;19908;-86
2023/04/29 04:13:49;;;;;;;;;;;17.30;87.70;;;;;;5115709;28;19947;-86
2023/04/29 04:16:14;;;;;;;;;;;17.30;88.30;;;;;;5114226;28;19908;-86
2023/04/29 04:18:41;;;;;;;;;;;17.30;87.70;;;;;;5096081;28;19915;-86
2023/04/29 04:21:07;;;;;;;;;;;17.30;87.60;;;;;;5096855;28;19961;-86
2023/04/29 04:23:33;;;;;;;;;;;17.30;87.60;;;;;;5103365;28;19908;-86
2023/04/29 04:25:58;;;;;;;;;;;17.30;87.70;;;;;;5112993;28;20197;-86
2023/04/29 04:28:24;;;;;;;;;;;17.30;87.70;;;;;;5094220;28;19908;-86
2023/04/29 04:30:49;;;;;;;;;;;17.20;87.50;;;;;;5094626;28;19908;-86
2023/04/29 04:33:15;;;;;;;;;;;17.20;87.60;;;;;;5095417;28;19912;-86
2023/04/29 04:35:43;;;;;;;;;;;17.20;87.50;;;;;;5095488;28;20215;-86
2023/04/29 04:38:10;;;;;;;;;;;17.20;87.60;;;;;;5093713;28;20102;-86
2023/04/29 04:40:36;;;;;;;;;;;17.20;87.50;;;;;;5092698;28;19908;-86
2023/04/29 04:43:02;;;;;;;;;;;17.20;87.60;;;;;;5093148;28;20185;-86
2023/04/29 04:45:31;;;;;;;;;;;17.20;87.50;;;;;;5127007;27;20257;-86
2023/04/29 04:47:57;;;;;;;;;;;17.20;87.50;;;;;;5094318;28;19908;-86
2023/04/29 04:50:22;;;;;;;;;;;17.20;87.50;;;;;;5128516;27;19937;-87
2023/04/29 04:52:48;;;;;;;;;;;17.20;87.50;;;;;;5097861;28;19998;-86
2023/04/29 04:55:14;;;;;;;;;;;17.20;87.50;;;;;;5099522;28;20224;-86
2023/04/29 04:57:40;;;;;;;;;;;17.20;87.50;;;;;;5099576;28;19908;-86
2023/04/29 05:00:06;;;;;;;;;;;17.20;87.50;;;;;;5099632;28;19994;-86
2023/04/29 05:02:31;;;;;;;;;;;17.20;87.50;;;;;;5117277;28;19968;-86
2023/04/29 05:04:57;;;;;;;;;;;17.20;87.40;;;;;;5099201;28;19908;-86
2023/04/29 05:07:23;;;;;;;;;;;17.20;87.50;;;;;;5099719;28;19928;-86
2023/04/29 05:09:48;;;;;;;;;;;17.20;87.40;;;;;;5099428;28;20216;-87
2023/04/29 05:12:14;;;;;;;;;;;17.20;87.40;;;;;;5132797;27;20271;-87
2023/04/29 05:14:40;;;;;;;;;;;17.20;87.40;;;;;;5099372;28;19943;-86
2023/04/29 05:17:06;;;;;;;;;;;17.20;87.30;;;;;;5116348;28;20119;-86
2023/04/29 05:19:31;;;;;;;;;;;17.20;87.20;;;;;;5099380;28;19911;-87
2023/04/29 05:21:57;;;;;;;;;;;17.20;87.20;;;;;;5097669;28;19966;-87
2023/04/29 05:24:22;;;;;;;;;;;17.20;87.20;;;;;;5098254;28;19907;-87
2023/04/29 05:26:50;;;;;;;;;;;17.20;87.20;;;;;;5097703;28;19908;-87
2023/04/29 05:29:16;;;;;;;;;;;17.20;87.20;;;;;;5097514;28;20182;-87
2023/04/29 05:31:42;;;;;;;;;;;17.20;87.10;;;;;;5097661;28;20307;-86
2023/04/29 05:34:07;;;;;;;;;;;17.20;87.20;;;;;;5097225;28;19908;-87
2023/04/29 05:36:33;;;;;;;;;;;17.20;87.10;;;;;;5132411;27;20361;-86
2023/04/29 05:38:59;;;;;;;;;;;17.20;87.10;;;;;;5097803;28;19923;-86
2023/04/29 05:41:25;;;;;;;;;;;17.20;87.00;;;;;;5130720;27;20129;-86
2023/04/29 05:43:51;;;;;;;;;;;17.20;87.00;;;;;;5095763;28;20002;-86
2023/04/29 05:46:17;;;;;;;;;;;17.20;87.00;;;;;;5097407;28;19994;-86
2023/04/29 05:48:43;;;;;;;;;;;17.10;87.00;;;;;;5098339;28;19908;-86
2023/04/29 05:51:09;;;;;;;;;;;17.10;86.90;;;;;;5096586;28;20216;-86
2023/04/29 05:53:37;;;;;;;;;;;17.20;86.90;;;;;;5096554;28;19939;-86
2023/04/29 05:56:06;;;;;;;;;;;17.20;86.80;;;;;;5094289;28;20193;-86
2023/04/29 05:58:33;;;;;;;;;;;17.20;86.80;;;;;;5094567;28;19915;-87
2023/04/29 06:00:59;;;;;;;;;;;17.20;86.80;;;;;;5112161;28;19933;-87
2023/04/29 06:03:24;;;;;;;;;;;17.20;86.70;;;;;;5096605;28;20196;-86
2023/04/29 06:05:50;;;;;;;;;;;17.20;86.70;;;;;;5097088;28;20308;-86
2023/04/29 06:08:15;;;;;;;;;;;17.20;86.60;;;;;;5096110;28;19919;-86
2023/04/29 06:10:41;;;;;;;;;;;17.20;86.60;;;;;;5094612;28;19908;-87
2023/04/29 06:13:07;;;;;;;;;;;17.20;86.50;;;;;;5096913;28;19918;-87
2023/04/29 06:15:33;;;;;;;;;;;17.20;86.50;;;;;;5112660;28;20119;-87
2023/04/29 06:17:59;;;;;;;;;;;17.20;86.40;;;;;;5112641;28;19912;-86
2023/04/29 06:20:25;;;;;;;;;;;17.20;86.40;;;;;;5095850;28;19916;-87
2023/04/29 06:22:51;;;;;;;;;;;17.20;86.30;;;;;;5095207;28;20112;-86
2023/04/29 06:25:16;;;;;;;;;;;17.20;86.20;;;;;;5095324;28;19907;-87
2023/04/29 06:27:42;;;;;;;;;;;17.20;86.10;;;;;;5095530;28;19919;-86
2023/04/29 06:30:08;;;;;;;;;;;17.20;86.10;;;;;;5094532;28;20270;-86
2023/04/29 06:32:34;;;;;;;;;;;17.20;86.00;;;;;;5096059;28;19904;-86
2023/04/29 06:35:00;;;;;;;;;;;17.20;86.00;;;;;;5096965;28;19915;-87
2023/04/29 06:37:26;;;;;;;;;;;17.20;86.00;;;;;;5093949;28;19907;-86
2023/04/29 06:39:52;;;;;;;;;;;17.20;86.00;;;;;;5112329;28;20396;-86
2023/04/29 06:42:18;;;;;;;;;;;17.20;85.90;;;;;;5110896;28;19912;-86
2023/04/29 06:44:44;;;;;;;;;;;17.20;85.90;;;;;;5092302;28;19909;-87
2023/04/29 06:47:10;;;;;;;;;;;17.20;85.90;;;;;;5093526;28;19912;-87
2023/04/29 06:49:35;;;;;;;;;;;17.20;85.90;;;;;;5092139;28;19908;-86
2023/04/29 06:52:01;;;;;;;;;;;17.20;85.90;;;;;;5127950;27;19908;-86
2023/04/29 06:54:27;;;;;;;;;;;17.20;85.90;;;;;;5093942;28;19908;-86
2023/04/29 06:56:53;;;;;;;;;;;17.20;85.90;;;;;;5112214;28;19967;-86
2023/04/29 06:59:18;;;;;;;;;;;17.20;85.90;;;;;;5093730;28;20154;-87
2023/04/29 07:01:44;;;;;;;;;;;17.20;85.80;;;;;;5093461;28;20071;-86
2023/04/29 07:04:10;;;;;;;;;;;17.20;85.80;;;;;;5127904;27;20269;-86
2023/04/29 07:06:36;;;;;;;;;;;17.20;85.80;;;;;;5109931;28;19919;-86
2023/04/29 07:09:02;;;;;;;;;;;17.20;85.80;;;;;;5092983;28;19915;-86
2023/04/29 07:11:28;;;;;;;;;;;17.20;85.80;;;;;;5092686;28;20331;-86
2023/04/29 07:13:53;;;;;;;;;;;17.20;85.80;;;;;;5092884;28;19947;-86
2023/04/29 07:16:20;;;;;;;;;;;17.20;85.80;;;;;;5094515;28;19918;-86
2023/04/29 07:18:49;;;;;;;;;;;17.20;85.80;;;;;;5092850;28;20022;-86
2023/04/29 07:21:15;;;;;;;;;;;17.20;85.70;;;;;;5111628;28;19933;-86
2023/04/29 07:23:41;;;;;;;;;;;17.20;85.80;;;;;;5094968;28;19908;-87
2023/04/29 07:26:17;;;;;;;;;;;17.10;85.70;;;;;;5112042;28;19994;-86
2023/04/29 07:28:43;;;;;;;;;;;17.20;85.80;;;;;;5093848;28;19918;-87
2023/04/29 07:31:10;;;;;;;;;;;17.10;85.70;;;;;;5092572;28;20103;-87
2023/04/29 07:33:36;;;;;;;;;;;17.10;85.80;;;;;;5092153;28;19908;-86
2023/04/29 07:36:02;;;;;;;;;;;17.10;85.90;;;;;;5092739;28;19918;-86
2023/04/29 07:38:28;;;;;;;;;;;17.10;86.20;;;;;;5094465;28;20088;-87
2023/04/29 07:40:54;;;;;;;;;;;17.10;86.30;;;;;;5091853;28;19918;-86
2023/04/29 07:43:20;;;;;;;;;;;17.10;86.40;;;;;;5093303;28;19908;-86
2023/04/29 07:45:46;;;;;;;;;;;17.10;86.60;;;;;;5093067;28;19911;-86
2023/04/29 07:48:12;;;;;;;;;;;17.10;86.90;;;;;;5094120;28;20042;-87
2023/04/29 07:50:37;;;;;;;;;;;17.10;87.00;;;;;;5094392;28;20490;-86
2023/04/29 07:53:03;;;;;;;;;;;17.10;87.10;;;;;;5093727;28;19907;-86
2023/04/29 07:55:29;;;;;;;;;;;17.10;87.10;;;;;;5099456;28;20172;-86
2023/04/29 07:57:56;;;;;;;;;;;17.10;87.30;;;;;;5094273;28;20209;-86
2023/04/29 08:00:22;;;;;;;;;;;17.10;87.50;;;;;;5092659;28;19908;-86
2023/04/29 08:02:51;;;;;;;;;;;17.10;87.60;;;;;;5110166;28;19908;-86
2023/04/29 08:05:17;;;;;;;;;;;17.10;87.70;;;;;;5094428;28;20270;-86
2023/04/29 08:07:43;;;;;;;;;;;17.10;87.80;;;;;;5092810;28;19908;-86
2023/04/29 08:10:09;;;;;;;;;;;17.10;87.90;;;;;;5092589;28;19919;-86
2023/04/29 08:12:35;;;;;;;;;;;17.10;88.00;;;;;;5091104;28;20285;-86
2023/04/29 08:15:00;;;;;;;;;;;17.10;88.10;;;;;;5109161;28;19908;-87
2023/04/29 08:17:26;;;;;;;;;;;17.10;88.10;;;;;;5089768;28;19977;-86
2023/04/29 08:19:52;;;;;;;;;;;17.10;88.10;;;;;;5090629;28;19916;-86
2023/04/29 08:22:18;;;;;;;;;;;17.10;88.00;;;;;;5107756;28;19962;-86
2023/04/29 08:24:44;;;;;;;;;;;17.10;88.10;;;;;;5092336;28;19947;-87
2023/04/29 08:27:09;;;;;;;;;;;17.10;88.20;;;;;;5095634;28;19911;-87
2023/04/29 08:29:35;;;;;;;;;;;17.10;88.50;;;;;;5095919;28;20247;-87
2023/04/29 08:32:01;;;;;;;;;;;17.10;88.50;;;;;;5113039;28;19949;-87
2023/04/29 08:34:27;;;;;;;;;;;17.10;88.50;;;;;;5095084;28;20340;-86
2023/04/29 08:36:52;;;;;;;;;;;17.10;88.50;;;;;;5096423;28;19972;-86
2023/04/29 08:39:19;;;;;;;;;;;17.10;88.70;;;;;;5096654;28;19970;-87
2023/04/29 08:41:50;;;;;;;;;;;17.10;88.80;;;;;;5114853;28;19915;-87
2023/04/29 08:44:16;;;;;;;;;;;17.10;89.20;;;;;;5097115;28;19907;-87
2023/04/29 08:46:42;;;;;;;;;;;17.10;89.40;;;;;;5096429;28;19969;-87
2023/04/29 08:49:08;;;;;;;;;;;17.10;89.90;;;;;;5097197;28;19915;-86
2023/04/29 08:51:34;;;;;;;;;;;17.10;89.60;;;;;;5095405;28;20211;-86
2023/04/29 08:54:00;;;;;;;;;;;17.10;90.00;;;;;;5095492;28;19916;-86
2023/04/29 08:56:27;;;;;;;;;;;17.10;89.70;;;;;;5096989;28;20100;-87
2023/04/29 08:58:54;;;;;;;;;;;17.10;89.90;;;;;;5113540;28;19923;-87
2023/04/29 09:01:20;;;;;;;;;;;17.10;89.90;;;;;;5094981;28;20281;-86
2023/04/29 09:03:49;;;;;;;;;;;17.10;89.70;;;;;;5114028;28;20216;-87
2023/04/29 09:06:16;;;;;;;;;;;17.10;90.00;;;;;;5094032;28;19930;-87
2023/04/29 09:08:42;;;;;;;;;;;17.10;89.90;;;;;;5093799;28;20079;-87
2023/04/29 09:11:10;;;;;;;;;;;17.10;90.00;;;;;;5110424;28;20310;-87
2023/04/29 09:13:36;;;;;;;;;;;17.10;90.00;;;;;;5094762;28;19998;-87
2023/04/29 09:16:02;;;;;;;;;;;17.10;90.00;;;;;;5094056;28;20014;-87
2023/04/29 09:18:44;;;;;;;;;;;17.10;90.20;;;;;;5094307;28;19933;-87
2023/04/29 09:21:23;;;;;;;;;;;17.10;90.20;;;;;;5094323;28;20010;-87
2023/04/29 09:23:56;;;;;;;;;;;17.10;90.20;;;;;;5094908;28;20332;-87
2023/04/29 09:26:23;;;;;;;;;;;17.10;90.20;;;;;;5113759;28;19907;-87
2023/04/29 09:29:10;;;;;;;;;;;17.10;90.20;;;;;;5096484;28;19915;-87
2023/04/29 09:31:39;;;;;;;;;;;17.10;90.30;;;;;;5094822;28;20197;-87
2023/04/29 09:34:05;;;;;;;;;;;17.10;90.40;;;;;;5111749;28;20380;-87
2023/04/29 09:36:55;;;;;;;;;;;17.10;90.30;;;;;;5095114;28;19908;-87
2023/04/29 09:39:22;;;;;;;;;;;17.20;90.40;;;;;;5093134;28;20035;-87
2023/04/29 09:41:53;;;;;;;;;;;17.20;90.40;;;;;;5095668;28;19915;-87
2023/04/29 09:44:21;;;;;;;;;;;17.20;90.40;;;;;;5092962;28;20431;-87
2023/04/29 09:46:54;;;;;;;;;;;17.20;90.40;;;;;;5112288;28;19908;-87
2023/04/29 09:49:26;;;;;;;;;;;17.20;90.50;;;;;;5093805;28;19908;-87
2023/04/29 09:51:53;;;;;;;;;;;17.20;90.40;;;;;;5093120;28;19912;-87
2023/04/29 09:54:20;;;;;;;;;;;17.20;90.60;;;;;;5092298;28;19907;-87
2023/04/29 09:56:50;;;;;;;;;;;17.20;90.50;;;;;;5089807;28;19912;-87
2023/04/29 09:59:16;;;;;;;;;;;17.20;90.60;;;;;;5091016;28;20270;-87
2023/04/29 10:01:42;;;;;;;;;;;17.20;90.60;;;;;;5092104;28;20121;-86
2023/04/29 10:04:10;;;;;;;;;;;17.20;90.60;;;;;;5089727;28;19937;-86
2023/04/29 10:06:37;;;;;;;;;;;17.30;90.60;;;;;;5091548;28;20284;-86
2023/04/29 10:09:04;;;;;;;;;;;17.30;90.60;;;;;;5092926;28;19943;-87
2023/04/29 10:11:30;;;;;;;;;;;17.30;90.50;;;;;;5091606;28;19918;-87
2023/04/29 10:13:56;;;;;;;;;;;17.40;90.50;;;;;;5090943;28;19912;-87
2023/04/29 10:16:33;;;;;;;;;;;17.40;90.40;;;;;;5108979;28;20281;-87
2023/04/29 10:19:02;;;;;;;;;;;17.40;90.30;;;;;;5092236;28;19939;-87
2023/04/29 10:21:30;;;;;;;;;;;17.50;90.10;;;;;;5107690;28;19950;-86
2023/04/29 10:23:56;;;;;;;;;;;17.50;90.00;;;;;;5092893;28;19914;-87
2023/04/29 10:26:25;;;;;;;;;;;17.50;89.70;;;;;;5090928;28;20004;-87
2023/04/29 10:28:52;;;;;;;;;;;17.60;89.70;;;;;;5125129;27;19908;-86
2023/04/29 10:31:18;;;;;;;;;;;17.60;89.40;;;;;;5109221;28;20080;-87
2023/04/29 10:33:45;;;;;;;;;;;17.60;89.20;;;;;;5107882;28;19920;-87
2023/04/29 10:36:11;;;;;;;;;;;17.60;88.90;;;;;;5088993;28;19920;-87
2023/04/29 10:38:49;;;;;;;;;;;17.70;88.80;;;;;;5108257;28;20060;-87
2023/04/29 10:41:19;;;;;;;;;;;17.70;88.40;;;;;;5088945;28;20081;-86
2023/04/29 10:43:45;;;;;;;;;;;17.70;88.20;;;;;;5088897;28;19931;-86
2023/04/29 10:46:17;;;;;;;;;;;17.70;88.00;;;;;;5107420;28;19908;-87
2023/04/29 10:48:43;;;;;;;;;;;17.80;87.80;;;;;;5089158;28;19908;-87
2023/04/29 10:51:09;;;;;;;;;;;17.80;87.30;;;;;;5090086;28;19972;-86
2023/04/29 10:53:35;;;;;;;;;;;17.90;87.50;;;;;;5090713;28;19912;-86
2023/04/29 10:56:07;;;;;;;;;;;18.00;86.40;;;;;;5090123;28;19908;-87
2023/04/29 10:58:33;;;;;;;;;;;18.00;86.20;;;;;;5088321;28;19926;-87
2023/04/29 11:00:59;;;;;;;;;;;18.00;86.00;;;;;;5122871;27;19939;-87
2023/04/29 11:03:43;;;;;;;;;;;18.00;85.70;;;;;;5106459;28;19908;-87
2023/04/29 11:06:10;;;;;;;;;;;18.00;85.70;;;;;;5088986;28;19908;-86
2023/04/29 11:08:38;;;;;;;;;;;18.10;85.30;;;;;;5103762;28;20003;-86
2023/04/29 11:11:05;;;;;;;;;;;18.10;85.00;;;;;;5088949;28;20469;-87
2023/04/29 11:13:33;;;;;;;;;;;18.10;84.60;;;;;;5087513;28;19947;-87
2023/04/29 11:16:05;;;;;;;;;;;18.20;84.50;;;;;;5090273;28;19907;-87
2023/04/29 11:18:30;;;;;;;;;;;18.20;84.30;;;;;;5089673;28;20068;-86
2023/04/29 11:21:09;;;;;;;;;;;18.20;84.30;;;;;;5090998;28;19974;-87
2023/04/29 11:23:35;;;;;;;;;;;18.20;84.10;;;;;;5090060;28;19919;-87
2023/04/29 11:26:01;;;;;;;;;;;18.20;83.90;;;;;;5090087;28;20281;-87
2023/04/29 11:28:28;;;;;;;;;;;18.30;83.80;;;;;;5131401;27;19915;-87
2023/04/29 11:30:55;;;;;;;;;;;18.30;83.50;;;;;;5091829;28;19908;-86
2023/04/29 11:33:21;;;;;;;;;;;18.40;83.20;;;;;;5087781;28;19908;-86
2023/04/29 11:35:47;;;;;;;;;;;18.40;82.80;;;;;;5107254;28;19960;-87
2023/04/29 11:38:13;;;;;;;;;;;18.50;82.60;;;;;;5105828;28;20451;-87
2023/04/29 11:40:48;;;;;;;;;;;18.50;82.20;;;;;;5089234;28;20463;-87
2023/04/29 11:43:17;;;;;;;;;;;18.60;81.90;;;;;;5087995;28;20288;-87
2023/04/29 11:45:46;;;;;;;;;;;18.60;81.60;;;;;;5089140;28;20251;-86
2023/04/29 11:48:18;;;;;;;;;;;18.60;81.30;;;;;;5087989;28;19962;-87
2023/04/29 11:50:48;;;;;;;;;;;18.70;81.00;;;;;;5106664;28;20265;-86
2023/04/29 11:53:14;;;;;;;;;;;18.80;80.50;;;;;;5088884;28;19914;-86
2023/04/29 11:55:46;;;;;;;;;;;18.80;80.10;;;;;;5089508;28;19912;-86
2023/04/29 11:58:13;;;;;;;;;;;18.80;80.10;;;;;;5088390;28;19916;-87
2023/04/29 12:00:39;;;;;;;;;;;18.80;80.30;;;;;;5085931;28;19924;-86
2023/04/29 12:03:14;;;;;;;;;;;18.80;80.40;;;;;;5106929;28;19915;-86
2023/04/29 12:05:48;;;;;;;;;;;18.80;80.50;;;;;;5088795;28;20010;-87
2023/04/29 12:08:14;;;;;;;;;;;18.90;80.10;;;;;;5088820;28;19908;-86
2023/04/29 12:10:40;;;;;;;;;;;18.90;79.90;;;;;;5088983;28;20416;-86
2023/04/29 12:13:05;;;;;;;;;;;18.90;79.70;;;;;;5123132;27;20272;-86
2023/04/29 12:15:31;;;;;;;;;;;18.90;79.70;;;;;;5090159;28;19919;-86
2023/04/29 12:17:59;;;;;;;;;;;18.90;79.70;;;;;;5089768;28;19943;-86
2023/04/29 12:20:27;;;;;;;;;;;18.90;79.70;;;;;;5088846;28;19909;-86
2023/04/29 12:22:52;;;;;;;;;;;18.90;79.60;;;;;;5090555;28;20405;-86
2023/04/29 12:25:19;;;;;;;;;;;19.00;79.50;;;;;;5088424;28;19949;-87
2023/04/29 12:27:45;;;;;;;;;;;19.00;79.20;;;;;;5088362;28;19939;-86
2023/04/29 12:30:11;;;;;;;;;;;19.10;78.90;;;;;;5088753;28;19935;-86
2023/04/29 12:32:37;;;;;;;;;;;19.10;78.80;;;;;;5087757;28;20193;-86
2023/04/29 12:35:02;;;;;;;;;;;19.00;78.70;;;;;;5104828;28;20273;-86
2023/04/29 12:37:29;;;;;;;;;;;19.00;78.80;;;;;;5089837;28;20239;-86
2023/04/29 12:39:54;;;;;;;;;;;19.00;79.10;;;;;;5106715;28;19942;-86
2023/04/29 12:42:20;;;;;;;;;;;18.90;79.20;;;;;;5107201;28;19908;-86
2023/04/29 12:44:47;;;;;;;;;;;18.90;79.40;;;;;;5105694;28;19915;-86
2023/04/29 12:47:13;;;;;;;;;;;18.90;79.60;;;;;;5087785;28;20151;-86
2023/04/29 12:49:45;;;;;;;;;;;18.90;79.80;;;;;;5085500;28;20292;-86
2023/04/29 12:52:11;;;;;;;;;;;18.80;79.80;;;;;;5086127;28;19908;-86
2023/04/29 12:54:39;;;;;;;;;;;18.80;79.90;;;;;;5087518;28;19938;-86
2023/04/29 12:57:06;;;;;;;;;;;18.80;80.00;;;;;;5105021;28;20432;-86
2023/04/29 12:59:32;;;;;;;;;;;18.90;80.00;;;;;;5105058;28;19922;-86
2023/04/29 13:01:57;;;;;;;;;;;18.90;79.90;;;;;;5087269;28;19908;-86
2023/04/29 13:04:23;;;;;;;;;;;18.90;79.70;;;;;;5101808;28;19908;-86
2023/04/29 13:06:53;;;;;;;;;;;18.90;79.40;;;;;;5084823;28;20390;-86
2023/04/29 13:09:18;;;;;;;;;;;19.00;80.00;;;;;;5084179;28;20006;-86
2023/04/29 13:11:45;;;;;;;;;;;19.00;79.20;;;;;;5120386;27;20089;-86
2023/04/29 13:14:11;;;;;;;;;;;19.00;79.10;;;;;;5089478;28;20509;-86
2023/04/29 13:16:36;;;;;;;;;;;19.00;79.00;;;;;;5106911;28;20057;-86
2023/04/29 13:19:02;;;;;;;;;;;19.10;78.90;;;;;;5089557;28;19939;-86
2023/04/29 13:21:29;;;;;;;;;;;19.10;78.80;;;;;;5090352;28;19918;-86
2023/04/29 13:23:54;;;;;;;;;;;19.10;78.70;;;;;;5090905;28;20077;-86
2023/04/29 13:26:20;;;;;;;;;;;19.10;78.60;;;;;;5091215;28;19919;-85
2023/04/29 13:28:46;;;;;;;;;;;19.10;78.70;;;;;;5090233;28;19914;-86
2023/04/29 13:31:13;;;;;;;;;;;19.00;78.60;;;;;;5090541;28;19908;-86
2023/04/29 13:33:39;;;;;;;;;;;19.00;78.70;;;;;;5091158;28;20189;-86
2023/04/29 13:36:04;;;;;;;;;;;19.00;78.80;;;;;;5123876;27;19907;-86
2023/04/29 13:38:31;;;;;;;;;;;19.00;78.90;;;;;;5124771;27;19912;-86
2023/04/29 13:40:56;;;;;;;;;;;19.00;78.90;;;;;;5092706;28;19955;-86
2023/04/29 13:43:22;;;;;;;;;;;19.00;79.00;;;;;;5091375;28;19958;-86
2023/04/29 13:45:48;;;;;;;;;;;19.00;79.00;;;;;;5106651;28;20065;-86
2023/04/29 13:48:13;;;;;;;;;;;19.00;79.00;;;;;;5089973;28;19911;-86
2023/04/29 13:50:40;;;;;;;;;;;19.00;79.00;;;;;;5087941;28;19919;-86
2023/04/29 13:53:06;;;;;;;;;;;19.00;79.00;;;;;;5088206;28;19907;-86
2023/04/29 13:55:33;;;;;;;;;;;19.00;79.00;;;;;;5087400;28;19920;-86
2023/04/29 13:57:59;;;;;;;;;;;19.00;79.00;;;;;;5087825;28;19927;-86
2023/04/29 14:00:26;;;;;;;;;;;19.00;79.00;;;;;;5089026;28;19912;-86
2023/04/29 14:02:51;;;;;;;;;;;19.00;79.10;;;;;;5091241;28;19915;-86
2023/04/29 14:05:17;;;;;;;;;;;19.00;79.20;;;;;;5107156;28;19922;-86
2023/04/29 14:07:43;;;;;;;;;;;19.00;79.30;;;;;;5089878;28;19958;-86
2023/04/29 14:10:08;;;;;;;;;;;19.00;79.40;;;;;;5086005;28;19959;-86
2023/04/29 14:12:34;;;;;;;;;;;18.90;79.40;;;;;;5106639;28;20270;-86
2023/04/29 14:15:00;;;;;;;;;;;18.90;79.50;;;;;;5088724;28;19988;-86